sensor_id;sensor_type;location;lat;lon;timestamp;P1;P2;P0
80396;PMS5003;69721;55.894;-3.052;2024-02-26T00:01:46;20;18;
80396;PMS5003;69721;55.894;-3.052;2024-02-26T00:04:12;17;16;
80396;PMS5003;69721;55.894;-3.052;2024-02-26T00:06:38;18;15;
80396;PMS5003;69721;55.894;-3.052;2024-02-26T00:09:03;18;17;
80396;PMS5003;69721;55.894;-3.052;2024-02-26T00:11:29;20;17;
80396;PMS5003;69721;55.894;-3.052;2024-02-26T00:13:54;17;16;
80396;PMS5003;69721;55.894;-3.052;2024-02-26T00:16:19;18;16;
80396;PMS5003;69721;55.894;-3.052;2024-02-26T00:18:45;23;18;
80396;PMS5003;69721;55.894;-3.052;2024-02-26T00:21:10;20;18;
80396;PMS5003;69721;55.894;-3.052;2024-02-26T00:23:35;16;13;
80396;PMS5003;69721;55.894;-3.052;2024-02-26T00:26:01;24;20;
80396;PMS5003;69721;55.894;-3.052;2024-02-26T00:28:26;13;12;
80396;PMS5003;69721;55.894;-3.052;2024-02-26T00:30:52;17;12;
80396;PMS5003;69721;55.894;-3.052;2024-02-26T00:33:17;25;21;
80396;PMS5003;69721;55.894;-3.052;2024-02-26T00:35:43;18;15;
80396;PMS5003;69721;55.894;-3.052;2024-02-26T00:38:09;19;15;
80396;PMS5003;69721;55.894;-3.052;2024-02-26T00:40:34;16;16;
80396;PMS5003;69721;55.894;-3.052;2024-02-26T00:43:00;24;18;
80396;PMS5003;69721;55.894;-3.052;2024-02-26T00:45:25;16;13;
80396;PMS5003;69721;55.894;-3.052;2024-02-26T00:47:51;16;14;
80396;PMS5003;69721;55.894;-3.052;2024-02-26T00:50:17;23;20;
80396;PMS5003;69721;55.894;-3.052;2024-02-26T00:52:42;17;17;
80396;PMS5003;69721;55.894;-3.052;2024-02-26T00:55:08;27;24;
80396;PMS5003;69721;55.894;-3.052;2024-02-26T00:57:34;17;14;
80396;PMS5003;69721;55.894;-3.052;2024-02-26T00:59:59;22;19;
80396;PMS5003;69721;55.894;-3.052;2024-02-26T01:04:50;22;22;
80396;PMS5003;69721;55.894;-3.052;2024-02-26T01:07:16;23;20;
80396;PMS5003;69721;55.894;-3.052;2024-02-26T01:09:42;14;14;
80396;PMS5003;69721;55.894;-3.052;2024-02-26T01:12:07;20;18;
80396;PMS5003;69721;55.894;-3.052;2024-02-26T01:14:32;22;20;
80396;PMS5003;69721;55.894;-3.052;2024-02-26T01:16:57;16;14;
80396;PMS5003;69721;55.894;-3.052;2024-02-26T01:19:22;13;13;
80396;PMS5003;69721;55.894;-3.052;2024-02-26T01:21:48;14;12;
80396;PMS5003;69721;55.894;-3.052;2024-02-26T01:24:14;15;13;
80396;PMS5003;69721;55.894;-3.052;2024-02-26T01:26:39;16;16;
80396;PMS5003;69721;55.894;-3.052;2024-02-26T01:29:05;14;13;
80396;PMS5003;69721;55.894;-3.052;2024-02-26T01:31:30;13;10;
80396;PMS5003;69721;55.894;-3.052;2024-02-26T01:33:55;12;9;
80396;PMS5003;69721;55.894;-3.052;2024-02-26T01:36:21;17;14;
80396;PMS5003;69721;55.894;-3.052;2024-02-26T01:38:46;8;8;
80396;PMS5003;69721;55.894;-3.052;2024-02-26T01:41:13;9;9;
80396;PMS5003;69721;55.894;-3.052;2024-02-26T01:43:37;10;9;
80396;PMS5003;69721;55.894;-3.052;2024-02-26T01:46:03;9;7;
80396;PMS5003;69721;55.894;-3.052;2024-02-26T01:48:28;11;9;
80396;PMS5003;69721;55.894;-3.052;2024-02-26T01:50:53;15;12;
80396;PMS5003;69721;55.894;-3.052;2024-02-26T01:53:18;8;8;
80396;PMS5003;69721;55.894;-3.052;2024-02-26T01:55:44;9;8;
80396;PMS5003;69721;55.894;-3.052;2024-02-26T01:58:10;9;7;
80396;PMS5003;69721;55.894;-3.052;2024-02-26T02:00:35;8;8;
80396;PMS5003;69721;55.894;-3.052;2024-02-26T02:03:01;6;6;
80396;PMS5003;69721;55.894;-3.052;2024-02-26T02:05:26;11;7;
80396;PMS5003;69721;55.894;-3.052;2024-02-26T02:07:52;8;6;
80396;PMS5003;69721;55.894;-3.052;2024-02-26T02:10:18;2;2;
80396;PMS5003;69721;55.894;-3.052;2024-02-26T02:15:09;6;6;
80396;PMS5003;69721;55.894;-3.052;2024-02-26T02:17:34;6;6;
80396;PMS5003;69721;55.894;-3.052;2024-02-26T02:20:00;9;7;
80396;PMS5003;69721;55.894;-3.052;2024-02-26T02:22:25;6;4;
80396;PMS5003;69721;55.894;-3.052;2024-02-26T02:24:51;4;4;
80396;PMS5003;69721;55.894;-3.052;2024-02-26T02:27:16;8;7;
80396;PMS5003;69721;55.894;-3.052;2024-02-26T02:29:42;11;7;
80396;PMS5003;69721;55.894;-3.052;2024-02-26T02:32:07;10;8;
80396;PMS5003;69721;55.894;-3.052;2024-02-26T02:34:34;11;8;
80396;PMS5003;69721;55.894;-3.052;2024-02-26T02:37:00;9;7;
80396;PMS5003;69721;55.894;-3.052;2024-02-26T02:39:25;8;8;
80396;PMS5003;69721;55.894;-3.052;2024-02-26T02:41:51;8;7;
80396;PMS5003;69721;55.894;-3.052;2024-02-26T02:44:16;9;8;
80396;PMS5003;69721;55.894;-3.052;2024-02-26T02:46:42;6;5;
80396;PMS5003;69721;55.894;-3.052;2024-02-26T02:49:08;5;5;
80396;PMS5003;69721;55.894;-3.052;2024-02-26T02:51:33;5;5;
80396;PMS5003;69721;55.894;-3.052;2024-02-26T02:53:58;5;3;
80396;PMS5003;69721;55.894;-3.052;2024-02-26T02:56:24;4;4;
80396;PMS5003;69721;55.894;-3.052;2024-02-26T02:58:49;6;5;
80396;PMS5003;69721;55.894;-3.052;2024-02-26T03:01:15;5;4;
80396;PMS5003;69721;55.894;-3.052;2024-02-26T03:03:41;5;4;
80396;PMS5003;69721;55.894;-3.052;2024-02-26T03:06:06;6;4;
80396;PMS5003;69721;55.894;-3.052;2024-02-26T03:08:32;6;5;
80396;PMS5003;69721;55.894;-3.052;2024-02-26T03:10:58;6;6;
80396;PMS5003;69721;55.894;-3.052;2024-02-26T03:13:23;7;7;
80396;PMS5003;69721;55.894;-3.052;2024-02-26T03:15:49;5;3;
80396;PMS5003;69721;55.894;-3.052;2024-02-26T03:18:14;9;7;
80396;PMS5003;69721;55.894;-3.052;2024-02-26T03:20:40;6;5;
80396;PMS5003;69721;55.894;-3.052;2024-02-26T03:25:31;3;3;
80396;PMS5003;69721;55.894;-3.052;2024-02-26T03:27:57;3;3;
80396;PMS5003;69721;55.894;-3.052;2024-02-26T03:30:22;3;3;
80396;PMS5003;69721;55.894;-3.052;2024-02-26T03:32:48;3;3;
80396;PMS5003;69721;55.894;-3.052;2024-02-26T03:35:13;2;2;
80396;PMS5003;69721;55.894;-3.052;2024-02-26T03:37:39;4;3;
80396;PMS5003;69721;55.894;-3.052;2024-02-26T03:40:05;2;2;
80396;PMS5003;69721;55.894;-3.052;2024-02-26T03:42:30;2;2;
80396;PMS5003;69721;55.894;-3.052;2024-02-26T03:44:56;4;3;
80396;PMS5003;69721;55.894;-3.052;2024-02-26T03:47:21;4;2;
80396;PMS5003;69721;55.894;-3.052;2024-02-26T03:49:47;3;1;
80396;PMS5003;69721;55.894;-3.052;2024-02-26T03:52:12;3;2;
80396;PMS5003;69721;55.894;-3.052;2024-02-26T03:54:38;4;2;
80396;PMS5003;69721;55.894;-3.052;2024-02-26T03:57:03;3;3;
80396;PMS5003;69721;55.894;-3.052;2024-02-26T03:59:29;4;3;
80396;PMS5003;69721;55.894;-3.052;2024-02-26T04:01:54;5;2;
80396;PMS5003;69721;55.894;-3.052;2024-02-26T04:04:20;2;2;
80396;PMS5003;69721;55.894;-3.052;2024-02-26T04:06:46;4;3;
80396;PMS5003;69721;55.894;-3.052;2024-02-26T04:09:13;3;3;
80396;PMS5003;69721;55.894;-3.052;2024-02-26T04:11:38;3;2;
80396;PMS5003;69721;55.894;-3.052;2024-02-26T04:14:03;3;3;
80396;PMS5003;69721;55.894;-3.052;2024-02-26T04:16:29;1;1;
80396;PMS5003;69721;55.894;-3.052;2024-02-26T04:18:54;2;1;
80396;PMS5003;69721;55.894;-3.052;2024-02-26T04:21:20;3;2;
80396;PMS5003;69721;55.894;-3.052;2024-02-26T04:23:45;1;1;
80396;PMS5003;69721;55.894;-3.052;2024-02-26T04:26:11;1;1;
80396;PMS5003;69721;55.894;-3.052;2024-02-26T04:28:38;2;2;
80396;PMS5003;69721;55.894;-3.052;2024-02-26T04:31:03;2;2;
80396;PMS5003;69721;55.894;-3.052;2024-02-26T04:35:54;1;1;
80396;PMS5003;69721;55.894;-3.052;2024-02-26T04:38:20;3;2;
80396;PMS5003;69721;55.894;-3.052;2024-02-26T04:40:45;1;1;
80396;PMS5003;69721;55.894;-3.052;2024-02-26T04:43:11;1;1;
80396;PMS5003;69721;55.894;-3.052;2024-02-26T04:45:37;2;2;
80396;PMS5003;69721;55.894;-3.052;2024-02-26T04:48:02;3;3;
80396;PMS5003;69721;55.894;-3.052;2024-02-26T04:50:28;3;1;
80396;PMS5003;69721;55.894;-3.052;2024-02-26T04:52:54;3;3;
80396;PMS5003;69721;55.894;-3.052;2024-02-26T04:55:20;3;3;
80396;PMS5003;69721;55.894;-3.052;2024-02-26T04:57:45;3;3;
80396;PMS5003;69721;55.894;-3.052;2024-02-26T05:00:12;3;2;
80396;PMS5003;69721;55.894;-3.052;2024-02-26T05:02:37;2;2;
80396;PMS5003;69721;55.894;-3.052;2024-02-26T05:05:02;3;3;
80396;PMS5003;69721;55.894;-3.052;2024-02-26T05:07:28;1;1;
80396;PMS5003;69721;55.894;-3.052;2024-02-26T05:09:53;2;2;
80396;PMS5003;69721;55.894;-3.052;2024-02-26T05:12:19;2;2;
80396;PMS5003;69721;55.894;-3.052;2024-02-26T05:14:45;2;2;
80396;PMS5003;69721;55.894;-3.052;2024-02-26T05:17:10;1;1;
80396;PMS5003;69721;55.894;-3.052;2024-02-26T05:19:36;2;2;
80396;PMS5003;69721;55.894;-3.052;2024-02-26T05:22:01;2;2;
80396;PMS5003;69721;55.894;-3.052;2024-02-26T05:24:27;2;2;
80396;PMS5003;69721;55.894;-3.052;2024-02-26T05:26:54;0;0;
80396;PMS5003;69721;55.894;-3.052;2024-02-26T05:29:19;1;1;
80396;PMS5003;69721;55.894;-3.052;2024-02-26T05:31:45;4;3;
80396;PMS5003;69721;55.894;-3.052;2024-02-26T05:34:10;3;3;
80396;PMS5003;69721;55.894;-3.052;2024-02-26T05:36:36;4;3;
80396;PMS5003;69721;55.894;-3.052;2024-02-26T05:39:02;4;2;
80396;PMS5003;69721;55.894;-3.052;2024-02-26T05:41:27;3;3;
80396;PMS5003;69721;55.894;-3.052;2024-02-26T05:46:19;3;3;
80396;PMS5003;69721;55.894;-3.052;2024-02-26T05:48:44;3;3;
80396;PMS5003;69721;55.894;-3.052;2024-02-26T05:51:10;3;2;
80396;PMS5003;69721;55.894;-3.052;2024-02-26T05:53:35;3;3;
80396;PMS5003;69721;55.894;-3.052;2024-02-26T05:56:01;2;2;
80396;PMS5003;69721;55.894;-3.052;2024-02-26T05:58:27;3;3;
80396;PMS5003;69721;55.894;-3.052;2024-02-26T06:00:52;5;3;
80396;PMS5003;69721;55.894;-3.052;2024-02-26T06:03:18;3;3;
80396;PMS5003;69721;55.894;-3.052;2024-02-26T06:05:43;4;3;
80396;PMS5003;69721;55.894;-3.052;2024-02-26T06:08:09;4;4;
80396;PMS5003;69721;55.894;-3.052;2024-02-26T06:10:35;3;3;
80396;PMS5003;69721;55.894;-3.052;2024-02-26T06:13:00;5;3;
80396;PMS5003;69721;55.894;-3.052;2024-02-26T06:15:26;4;3;
80396;PMS5003;69721;55.894;-3.052;2024-02-26T06:17:52;4;2;
80396;PMS5003;69721;55.894;-3.052;2024-02-26T06:20:17;2;2;
80396;PMS5003;69721;55.894;-3.052;2024-02-26T06:22:43;5;4;
80396;PMS5003;69721;55.894;-3.052;2024-02-26T06:25:08;1;1;
80396;PMS5003;69721;55.894;-3.052;2024-02-26T06:27:34;2;2;
80396;PMS5003;69721;55.894;-3.052;2024-02-26T06:29:59;4;3;
80396;PMS5003;69721;55.894;-3.052;2024-02-26T06:32:25;5;3;
80396;PMS5003;69721;55.894;-3.052;2024-02-26T06:34:50;3;3;
80396;PMS5003;69721;55.894;-3.052;2024-02-26T06:37:16;6;3;
80396;PMS5003;69721;55.894;-3.052;2024-02-26T06:39:41;5;5;
80396;PMS5003;69721;55.894;-3.052;2024-02-26T06:42:07;4;3;
80396;PMS5003;69721;55.894;-3.052;2024-02-26T06:44:34;4;4;
80396;PMS5003;69721;55.894;-3.052;2024-02-26T06:46:59;4;4;
80396;PMS5003;69721;55.894;-3.052;2024-02-26T06:49:25;6;3;
80396;PMS5003;69721;55.894;-3.052;2024-02-26T06:51:50;3;3;
80396;PMS5003;69721;55.894;-3.052;2024-02-26T06:56:42;3;3;
80396;PMS5003;69721;55.894;-3.052;2024-02-26T06:59:07;5;3;
80396;PMS5003;69721;55.894;-3.052;2024-02-26T07:01:33;7;4;
80396;PMS5003;69721;55.894;-3.052;2024-02-26T07:03:59;4;2;
80396;PMS5003;69721;55.894;-3.052;2024-02-26T07:06:24;5;4;
80396;PMS5003;69721;55.894;-3.052;2024-02-26T07:08:50;5;4;
80396;PMS5003;69721;55.894;-3.052;2024-02-26T07:11:16;3;3;
80396;PMS5003;69721;55.894;-3.052;2024-02-26T07:13:41;4;3;
80396;PMS5003;69721;55.894;-3.052;2024-02-26T07:16:09;5;4;
80396;PMS5003;69721;55.894;-3.052;2024-02-26T07:18:32;6;4;
80396;PMS5003;69721;55.894;-3.052;2024-02-26T07:20:58;4;4;
80396;PMS5003;69721;55.894;-3.052;2024-02-26T07:23:23;5;4;
80396;PMS5003;69721;55.894;-3.052;2024-02-26T07:25:49;5;4;
80396;PMS5003;69721;55.894;-3.052;2024-02-26T07:28:14;3;3;
80396;PMS5003;69721;55.894;-3.052;2024-02-26T07:30:40;6;6;
80396;PMS5003;69721;55.894;-3.052;2024-02-26T07:33:06;4;3;
80396;PMS5003;69721;55.894;-3.052;2024-02-26T07:35:31;4;3;
80396;PMS5003;69721;55.894;-3.052;2024-02-26T07:37:57;4;4;
80396;PMS5003;69721;55.894;-3.052;2024-02-26T07:40:22;6;5;
80396;PMS5003;69721;55.894;-3.052;2024-02-26T07:42:48;7;6;
80396;PMS5003;69721;55.894;-3.052;2024-02-26T07:45:14;6;6;
80396;PMS5003;69721;55.894;-3.052;2024-02-26T07:47:39;5;5;
80396;PMS5003;69721;55.894;-3.052;2024-02-26T07:50:05;6;6;
80396;PMS5003;69721;55.894;-3.052;2024-02-26T07:52:30;8;4;
80396;PMS5003;69721;55.894;-3.052;2024-02-26T07:54:56;5;5;
80396;PMS5003;69721;55.894;-3.052;2024-02-26T07:57:22;6;6;
80396;PMS5003;69721;55.894;-3.052;2024-02-26T07:59:47;8;7;
80396;PMS5003;69721;55.894;-3.052;2024-02-26T08:02:13;6;5;
80396;PMS5003;69721;55.894;-3.052;2024-02-26T08:07:05;8;5;
80396;PMS5003;69721;55.894;-3.052;2024-02-26T08:09:30;7;5;
80396;PMS5003;69721;55.894;-3.052;2024-02-26T08:11:55;8;5;
80396;PMS5003;69721;55.894;-3.052;2024-02-26T08:14:21;7;7;
80396;PMS5003;69721;55.894;-3.052;2024-02-26T08:16:46;7;5;
80396;PMS5003;69721;55.894;-3.052;2024-02-26T08:19:12;4;4;
80396;PMS5003;69721;55.894;-3.052;2024-02-26T08:21:38;6;6;
80396;PMS5003;69721;55.894;-3.052;2024-02-26T08:24:03;5;5;
80396;PMS5003;69721;55.894;-3.052;2024-02-26T08:26:29;7;6;
80396;PMS5003;69721;55.894;-3.052;2024-02-26T08:28:54;18;8;
80396;PMS5003;69721;55.894;-3.052;2024-02-26T08:31:20;7;6;
80396;PMS5003;69721;55.894;-3.052;2024-02-26T08:33:45;8;6;
80396;PMS5003;69721;55.894;-3.052;2024-02-26T08:36:11;4;4;
80396;PMS5003;69721;55.894;-3.052;2024-02-26T08:38:37;4;4;
80396;PMS5003;69721;55.894;-3.052;2024-02-26T08:41:03;3;3;
80396;PMS5003;69721;55.894;-3.052;2024-02-26T08:43:34;7;5;
80396;PMS5003;69721;55.894;-3.052;2024-02-26T08:45:54;2;2;
80396;PMS5003;69721;55.894;-3.052;2024-02-26T08:48:20;5;2;
80396;PMS5003;69721;55.894;-3.052;2024-02-26T08:50:46;1;1;
80396;PMS5003;69721;55.894;-3.052;2024-02-26T08:53:12;2;2;
80396;PMS5003;69721;55.894;-3.052;2024-02-26T08:55:37;2;2;
80396;PMS5003;69721;55.894;-3.052;2024-02-26T08:58:03;3;2;
80396;PMS5003;69721;55.894;-3.052;2024-02-26T09:00:28;4;4;
80396;PMS5003;69721;55.894;-3.052;2024-02-26T09:02:54;2;2;
80396;PMS5003;69721;55.894;-3.052;2024-02-26T09:05:19;5;4;
80396;PMS5003;69721;55.894;-3.052;2024-02-26T09:07:45;2;2;
80396;PMS5003;69721;55.894;-3.052;2024-02-26T09:10:11;3;3;
80396;PMS5003;69721;55.894;-3.052;2024-02-26T09:12:36;1;1;
80396;PMS5003;69721;55.894;-3.052;2024-02-26T09:15:02;3;1;
80396;PMS5003;69721;55.894;-3.052;2024-02-26T09:17:27;3;2;
80396;PMS5003;69721;55.894;-3.052;2024-02-26T09:19:53;2;1;
80396;PMS5003;69721;55.894;-3.052;2024-02-26T09:22:18;2;2;
80396;PMS5003;69721;55.894;-3.052;2024-02-26T09:24:44;2;2;
80396;PMS5003;69721;55.894;-3.052;2024-02-26T09:27:10;2;2;
80396;PMS5003;69721;55.894;-3.052;2024-02-26T09:29:35;2;2;
80396;PMS5003;69721;55.894;-3.052;2024-02-26T09:32:01;2;2;
80396;PMS5003;69721;55.894;-3.052;2024-02-26T09:34:26;3;3;
80396;PMS5003;69721;55.894;-3.052;2024-02-26T09:36:52;2;2;
80396;PMS5003;69721;55.894;-3.052;2024-02-26T09:39:17;2;2;
80396;PMS5003;69721;55.894;-3.052;2024-02-26T09:41:44;1;1;
80396;PMS5003;69721;55.894;-3.052;2024-02-26T09:44:08;2;2;
80396;PMS5003;69721;55.894;-3.052;2024-02-26T09:46:34;2;1;
80396;PMS5003;69721;55.894;-3.052;2024-02-26T09:48:59;1;1;
80396;PMS5003;69721;55.894;-3.052;2024-02-26T09:51:25;1;1;
80396;PMS5003;69721;55.894;-3.052;2024-02-26T09:53:51;5;4;
80396;PMS5003;69721;55.894;-3.052;2024-02-26T09:56:17;1;1;
80396;PMS5003;69721;55.894;-3.052;2024-02-26T09:58:42;1;1;
80396;PMS5003;69721;55.894;-3.052;2024-02-26T10:01:13;1;1;
80396;PMS5003;69721;55.894;-3.052;2024-02-26T10:03:34;0;0;
80396;PMS5003;69721;55.894;-3.052;2024-02-26T10:05:59;1;1;
80396;PMS5003;69721;55.894;-3.052;2024-02-26T10:08:25;0;0;
80396;PMS5003;69721;55.894;-3.052;2024-02-26T10:10:51;2;1;
80396;PMS5003;69721;55.894;-3.052;2024-02-26T10:13:16;5;4;
80396;PMS5003;69721;55.894;-3.052;2024-02-26T10:15:42;1;1;
80396;PMS5003;69721;55.894;-3.052;2024-02-26T10:18:08;0;0;
80396;PMS5003;69721;55.894;-3.052;2024-02-26T10:20:33;0;0;
80396;PMS5003;69721;55.894;-3.052;2024-02-26T10:25:24;0;0;
80396;PMS5003;69721;55.894;-3.052;2024-02-26T10:27:50;0;0;
80396;PMS5003;69721;55.894;-3.052;2024-02-26T10:30:17;1;1;
80396;PMS5003;69721;55.894;-3.052;2024-02-26T10:32:41;0;0;
80396;PMS5003;69721;55.894;-3.052;2024-02-26T10:35:08;3;2;
80396;PMS5003;69721;55.894;-3.052;2024-02-26T10:37:32;1;0;
80396;PMS5003;69721;55.894;-3.052;2024-02-26T10:39:57;0;0;
80396;PMS5003;69721;55.894;-3.052;2024-02-26T10:42:23;1;1;
80396;PMS5003;69721;55.894;-3.052;2024-02-26T10:44:48;3;1;
80396;PMS5003;69721;55.894;-3.052;2024-02-26T10:47:14;0;0;
80396;PMS5003;69721;55.894;-3.052;2024-02-26T10:49:44;1;0;
80396;PMS5003;69721;55.894;-3.052;2024-02-26T10:52:05;0;0;
80396;PMS5003;69721;55.894;-3.052;2024-02-26T10:54:31;0;0;
80396;PMS5003;69721;55.894;-3.052;2024-02-26T10:56:56;0;0;
80396;PMS5003;69721;55.894;-3.052;2024-02-26T10:59:22;0;0;
80396;PMS5003;69721;55.894;-3.052;2024-02-26T11:01:48;1;0;
80396;PMS5003;69721;55.894;-3.052;2024-02-26T11:04:13;0;0;
80396;PMS5003;69721;55.894;-3.052;2024-02-26T11:06:38;0;0;
80396;PMS5003;69721;55.894;-3.052;2024-02-26T11:09:04;0;0;
80396;PMS5003;69721;55.894;-3.052;2024-02-26T11:11:30;0;0;
80396;PMS5003;69721;55.894;-3.052;2024-02-26T11:13:56;2;0;
80396;PMS5003;69721;55.894;-3.052;2024-02-26T11:16:21;0;0;
80396;PMS5003;69721;55.894;-3.052;2024-02-26T11:18:46;0;0;
80396;PMS5003;69721;55.894;-3.052;2024-02-26T11:21:12;0;0;
80396;PMS5003;69721;55.894;-3.052;2024-02-26T11:23:38;0;0;
80396;PMS5003;69721;55.894;-3.052;2024-02-26T11:26:04;0;0;
80396;PMS5003;69721;55.894;-3.052;2024-02-26T11:28:29;2;0;
80396;PMS5003;69721;55.894;-3.052;2024-02-26T11:30:55;0;0;
80396;PMS5003;69721;55.894;-3.052;2024-02-26T11:35:46;0;0;
80396;PMS5003;69721;55.894;-3.052;2024-02-26T11:40:37;0;0;
80396;PMS5003;69721;55.894;-3.052;2024-02-26T11:43:03;0;0;
80396;PMS5003;69721;55.894;-3.052;2024-02-26T11:47:55;0;0;
80396;PMS5003;69721;55.894;-3.052;2024-02-26T11:55:10;0;0;
80396;PMS5003;69721;55.894;-3.052;2024-02-26T12:04:53;0;0;
80396;PMS5003;69721;55.894;-3.052;2024-02-26T12:07:18;0;0;
80396;PMS5003;69721;55.894;-3.052;2024-02-26T12:09:44;0;0;
80396;PMS5003;69721;55.894;-3.052;2024-02-26T12:12:10;1;0;
80396;PMS5003;69721;55.894;-3.052;2024-02-26T12:14:37;0;0;
80396;PMS5003;69721;55.894;-3.052;2024-02-26T12:17:00;1;0;
80396;PMS5003;69721;55.894;-3.052;2024-02-26T12:19:26;0;0;
80396;PMS5003;69721;55.894;-3.052;2024-02-26T12:21:52;1;1;
80396;PMS5003;69721;55.894;-3.052;2024-02-26T12:24:17;0;0;
80396;PMS5003;69721;55.894;-3.052;2024-02-26T12:26:43;0;0;
80396;PMS5003;69721;55.894;-3.052;2024-02-26T12:29:08;5;4;
80396;PMS5003;69721;55.894;-3.052;2024-02-26T12:31:34;8;7;
80396;PMS5003;69721;55.894;-3.052;2024-02-26T12:34:00;19;12;
80396;PMS5003;69721;55.894;-3.052;2024-02-26T12:36:25;10;10;
80396;PMS5003;69721;55.894;-3.052;2024-02-26T12:38:50;0;0;
80396;PMS5003;69721;55.894;-3.052;2024-02-26T12:41:16;21;17;
80396;PMS5003;69721;55.894;-3.052;2024-02-26T12:46:07;0;0;
80396;PMS5003;69721;55.894;-3.052;2024-02-26T12:48:32;0;0;
80396;PMS5003;69721;55.894;-3.052;2024-02-26T12:50:58;0;0;
80396;PMS5003;69721;55.894;-3.052;2024-02-26T12:53:23;0;0;
80396;PMS5003;69721;55.894;-3.052;2024-02-26T12:55:49;1;0;
80396;PMS5003;69721;55.894;-3.052;2024-02-26T12:58:14;0;0;
80396;PMS5003;69721;55.894;-3.052;2024-02-26T13:00:39;0;0;
80396;PMS5003;69721;55.894;-3.052;2024-02-26T13:03:05;0;0;
80396;PMS5003;69721;55.894;-3.052;2024-02-26T13:05:30;0;0;
80396;PMS5003;69721;55.894;-3.052;2024-02-26T13:07:56;0;0;
80396;PMS5003;69721;55.894;-3.052;2024-02-26T13:10:21;1;1;
80396;PMS5003;69721;55.894;-3.052;2024-02-26T13:12:48;0;0;
80396;PMS5003;69721;55.894;-3.052;2024-02-26T13:15:15;0;0;
80396;PMS5003;69721;55.894;-3.052;2024-02-26T13:17:39;0;0;
80396;PMS5003;69721;55.894;-3.052;2024-02-26T13:20:05;1;1;
80396;PMS5003;69721;55.894;-3.052;2024-02-26T13:22:30;1;0;
80396;PMS5003;69721;55.894;-3.052;2024-02-26T13:24:56;0;0;
80396;PMS5003;69721;55.894;-3.052;2024-02-26T13:27:23;0;0;
80396;PMS5003;69721;55.894;-3.052;2024-02-26T13:29:46;1;0;
80396;PMS5003;69721;55.894;-3.052;2024-02-26T13:32:12;0;0;
80396;PMS5003;69721;55.894;-3.052;2024-02-26T13:34:37;1;0;
80396;PMS5003;69721;55.894;-3.052;2024-02-26T13:37:03;2;2;
80396;PMS5003;69721;55.894;-3.052;2024-02-26T13:39:28;0;0;
80396;PMS5003;69721;55.894;-3.052;2024-02-26T13:41:54;2;2;
80396;PMS5003;69721;55.894;-3.052;2024-02-26T13:44:20;0;0;
80396;PMS5003;69721;55.894;-3.052;2024-02-26T13:46:45;1;1;
80396;PMS5003;69721;55.894;-3.052;2024-02-26T13:49:11;0;0;
80396;PMS5003;69721;55.894;-3.052;2024-02-26T13:51:37;0;0;
80396;PMS5003;69721;55.894;-3.052;2024-02-26T13:56:27;0;0;
80396;PMS5003;69721;55.894;-3.052;2024-02-26T13:58:53;3;2;
80396;PMS5003;69721;55.894;-3.052;2024-02-26T14:01:18;4;3;
80396;PMS5003;69721;55.894;-3.052;2024-02-26T14:03:44;9;9;
80396;PMS5003;69721;55.894;-3.052;2024-02-26T14:06:09;17;16;
80396;PMS5003;69721;55.894;-3.052;2024-02-26T14:08:35;3;0;
80396;PMS5003;69721;55.894;-3.052;2024-02-26T14:11:01;1;1;
80396;PMS5003;69721;55.894;-3.052;2024-02-26T14:13:26;24;23;
80396;PMS5003;69721;55.894;-3.052;2024-02-26T14:15:52;0;0;
80396;PMS5003;69721;55.894;-3.052;2024-02-26T14:18:17;0;0;
80396;PMS5003;69721;55.894;-3.052;2024-02-26T14:20:43;1;0;
80396;PMS5003;69721;55.894;-3.052;2024-02-26T14:23:08;0;0;
80396;PMS5003;69721;55.894;-3.052;2024-02-26T14:25:34;1;1;
80396;PMS5003;69721;55.894;-3.052;2024-02-26T14:27:59;0;0;
80396;PMS5003;69721;55.894;-3.052;2024-02-26T14:30:25;0;0;
80396;PMS5003;69721;55.894;-3.052;2024-02-26T14:32:50;1;0;
80396;PMS5003;69721;55.894;-3.052;2024-02-26T14:35:18;0;0;
80396;PMS5003;69721;55.894;-3.052;2024-02-26T14:37:44;0;0;
80396;PMS5003;69721;55.894;-3.052;2024-02-26T14:40:10;0;0;
80396;PMS5003;69721;55.894;-3.052;2024-02-26T14:42:35;0;0;
80396;PMS5003;69721;55.894;-3.052;2024-02-26T14:45:00;0;0;
80396;PMS5003;69721;55.894;-3.052;2024-02-26T14:47:26;0;0;
80396;PMS5003;69721;55.894;-3.052;2024-02-26T14:49:51;0;0;
80396;PMS5003;69721;55.894;-3.052;2024-02-26T14:52:17;0;0;
80396;PMS5003;69721;55.894;-3.052;2024-02-26T14:54:42;0;0;
80396;PMS5003;69721;55.894;-3.052;2024-02-26T14:57:08;0;0;
80396;PMS5003;69721;55.894;-3.052;2024-02-26T14:59:33;1;0;
80396;PMS5003;69721;55.894;-3.052;2024-02-26T15:01:59;0;0;
80396;PMS5003;69721;55.894;-3.052;2024-02-26T15:06:50;0;0;
80396;PMS5003;69721;55.894;-3.052;2024-02-26T15:09:15;0;0;
80396;PMS5003;69721;55.894;-3.052;2024-02-26T15:11:41;0;0;
80396;PMS5003;69721;55.894;-3.052;2024-02-26T15:14:06;0;0;
80396;PMS5003;69721;55.894;-3.052;2024-02-26T15:16:31;0;0;
80396;PMS5003;69721;55.894;-3.052;2024-02-26T15:18:57;0;0;
80396;PMS5003;69721;55.894;-3.052;2024-02-26T15:21:22;0;0;
80396;PMS5003;69721;55.894;-3.052;2024-02-26T15:23:48;0;0;
80396;PMS5003;69721;55.894;-3.052;2024-02-26T15:26:13;1;1;
80396;PMS5003;69721;55.894;-3.052;2024-02-26T15:28:39;2;1;
80396;PMS5003;69721;55.894;-3.052;2024-02-26T15:31:04;0;0;
80396;PMS5003;69721;55.894;-3.052;2024-02-26T15:33:30;1;0;
80396;PMS5003;69721;55.894;-3.052;2024-02-26T15:35:55;0;0;
80396;PMS5003;69721;55.894;-3.052;2024-02-26T15:38:21;1;0;
80396;PMS5003;69721;55.894;-3.052;2024-02-26T15:40:46;0;0;
80396;PMS5003;69721;55.894;-3.052;2024-02-26T15:43:12;0;0;
80396;PMS5003;69721;55.894;-3.052;2024-02-26T15:45:37;0;0;
80396;PMS5003;69721;55.894;-3.052;2024-02-26T15:48:03;0;0;
80396;PMS5003;69721;55.894;-3.052;2024-02-26T15:50:28;0;0;
80396;PMS5003;69721;55.894;-3.052;2024-02-26T15:52:54;0;0;
80396;PMS5003;69721;55.894;-3.052;2024-02-26T15:55:19;1;1;
80396;PMS5003;69721;55.894;-3.052;2024-02-26T15:57:45;0;0;
80396;PMS5003;69721;55.894;-3.052;2024-02-26T16:00:10;0;0;
80396;PMS5003;69721;55.894;-3.052;2024-02-26T16:02:36;0;0;
80396;PMS5003;69721;55.894;-3.052;2024-02-26T16:05:01;4;1;
80396;PMS5003;69721;55.894;-3.052;2024-02-26T16:07:27;0;0;
80396;PMS5003;69721;55.894;-3.052;2024-02-26T16:09:52;0;0;
80396;PMS5003;69721;55.894;-3.052;2024-02-26T16:12:19;0;0;
80396;PMS5003;69721;55.894;-3.052;2024-02-26T16:17:10;2;2;
80396;PMS5003;69721;55.894;-3.052;2024-02-26T16:19:34;2;0;
80396;PMS5003;69721;55.894;-3.052;2024-02-26T16:22:00;2;0;
80396;PMS5003;69721;55.894;-3.052;2024-02-26T16:24:25;1;1;
80396;PMS5003;69721;55.894;-3.052;2024-02-26T16:26:51;2;0;
80396;PMS5003;69721;55.894;-3.052;2024-02-26T16:29:16;0;0;
80396;PMS5003;69721;55.894;-3.052;2024-02-26T16:31:42;0;0;
80396;PMS5003;69721;55.894;-3.052;2024-02-26T16:34:07;0;0;
80396;PMS5003;69721;55.894;-3.052;2024-02-26T16:36:33;1;0;
80396;PMS5003;69721;55.894;-3.052;2024-02-26T16:38:58;3;0;
80396;PMS5003;69721;55.894;-3.052;2024-02-26T16:41:24;1;1;
80396;PMS5003;69721;55.894;-3.052;2024-02-26T16:43:50;2;0;
80396;PMS5003;69721;55.894;-3.052;2024-02-26T16:46:15;0;0;
80396;PMS5003;69721;55.894;-3.052;2024-02-26T16:48:40;3;3;
80396;PMS5003;69721;55.894;-3.052;2024-02-26T16:51:06;7;5;
80396;PMS5003;69721;55.894;-3.052;2024-02-26T16:53:32;3;3;
80396;PMS5003;69721;55.894;-3.052;2024-02-26T16:55:57;0;0;
80396;PMS5003;69721;55.894;-3.052;2024-02-26T16:58:22;1;1;
80396;PMS5003;69721;55.894;-3.052;2024-02-26T17:00:48;3;1;
80396;PMS5003;69721;55.894;-3.052;2024-02-26T17:03:14;0;0;
80396;PMS5003;69721;55.894;-3.052;2024-02-26T17:05:39;1;1;
80396;PMS5003;69721;55.894;-3.052;2024-02-26T17:08:05;1;1;